createdAt,value
2022-11-03T00:00:12.403Z,63.4
2022-11-03T00:01:12.638Z,58.1
2022-11-03T00:02:17.354Z,60.4
2022-11-03T00:03:21.716Z,59.5
2022-11-03T00:04:25.996Z,58.2
2022-11-03T00:05:30.579Z,54.7
2022-11-03T00:06:40.102Z,58.5
2022-11-03T00:07:44.215Z,57.6
2022-11-03T00:08:48.947Z,54.9
2022-11-03T00:09:53.582Z,55.2
2022-11-03T00:10:58.091Z,57
2022-11-03T00:12:12.767Z,53.6
2022-11-03T00:13:17.291Z,55.8
2022-11-03T00:14:21.877Z,57.3
2022-11-03T00:15:25.970Z,54.4
2022-11-03T00:16:30.683Z,52.9
2022-11-03T00:17:35.290Z,57.4
2022-11-03T00:18:40.006Z,58.1
2022-11-03T00:19:44.703Z,62.5
2022-11-03T00:20:49.215Z,58.9
2022-11-03T00:21:55.975Z,62.5
2022-11-03T00:23:00.170Z,60.1
2022-11-03T00:24:04.757Z,62.5
2022-11-03T00:25:09.338Z,68.2
2022-11-03T00:26:13.961Z,66.1
2022-11-03T00:27:18.451Z,66.8
2022-11-03T00:28:22.977Z,67.8
2022-11-03T00:29:26.995Z,70.2
2022-11-03T00:30:31.182Z,74.7
2022-11-03T00:31:35.769Z,73
2022-11-03T00:32:40.336Z,77.8
2022-11-03T00:33:44.506Z,76.9
2022-11-03T00:34:49.055Z,80.2
2022-11-03T00:35:53.650Z,82
2022-11-03T00:36:58.450Z,79
2022-11-03T00:38:03.054Z,76.5
2022-11-03T00:39:07.419Z,76.3
2022-11-03T00:40:12.114Z,72.2
2022-11-03T00:41:16.595Z,66.4
2022-11-03T00:42:21.007Z,65.7
2022-11-03T00:43:25.305Z,61.9
2022-11-03T00:44:30.314Z,63.9
2022-11-03T00:45:35.239Z,59.5
2022-11-03T00:46:39.420Z,62.3
2022-11-03T00:47:43.573Z,57.9
2022-11-03T00:48:53.208Z,57.3
2022-11-03T00:49:57.831Z,59.9
2022-11-03T00:51:02.439Z,57.4
2022-11-03T00:52:09.502Z,61.6
2022-11-03T00:53:14.059Z,61.5
2022-11-03T00:54:18.734Z,64.5
2022-11-03T00:55:23.094Z,61.8
2022-11-03T00:56:27.272Z,59.2
2022-11-03T00:57:31.807Z,63.3
2022-11-03T00:58:35.860Z,63.2
2022-11-03T00:59:40.270Z,57.3
2022-11-03T01:00:44.717Z,59.8
2022-11-03T01:01:48.917Z,59.2
2022-11-03T01:02:53.482Z,57.7
2022-11-03T01:03:57.878Z,60.5
2022-11-03T01:05:07.618Z,57.5
2022-11-03T01:06:17.162Z,56.1
2022-11-03T01:07:26.857Z,58.9
2022-11-03T01:08:31.003Z,57.3
2022-11-03T01:09:35.777Z,58.4
2022-11-03T01:10:40.166Z,54.1
2022-11-03T01:11:49.886Z,57.9
2022-11-03T01:12:57.635Z,53.3
2022-11-03T01:14:02.743Z,55.4
2022-11-03T01:15:07.086Z,50.7
2022-11-03T01:16:11.106Z,56.7
2022-11-03T01:17:15.294Z,53
2022-11-03T01:18:20.046Z,49.5
2022-11-03T01:19:24.483Z,52.6
2022-11-03T01:20:28.951Z,47.2
2022-11-03T01:21:33.695Z,48.2
2022-11-03T01:22:38.080Z,47
2022-11-03T01:23:42.167Z,47
2022-11-03T01:24:46.571Z,46.1
2022-11-03T01:25:50.991Z,43.5
2022-11-03T01:26:55.507Z,42.7
2022-11-03T01:27:59.687Z,41.9
2022-11-03T01:29:03.700Z,44.8
2022-11-03T01:30:08.476Z,46.5
2022-11-03T01:31:12.910Z,47.1
2022-11-03T01:32:20.065Z,51.8
2022-11-03T01:33:24.627Z,45.7
2022-11-03T01:34:29.241Z,45.3
2022-11-03T01:35:33.742Z,45.2
2022-11-03T01:36:38.322Z,43.8
2022-11-03T01:37:42.362Z,45.3
2022-11-03T01:38:46.591Z,47.3
2022-11-03T01:39:51.146Z,45
2022-11-03T01:40:55.654Z,41.2
2022-11-03T01:42:00.022Z,40.8
2022-11-03T01:43:04.633Z,43.1
2022-11-03T01:44:19.074Z,45.3
2022-11-03T01:45:23.746Z,46.2
2022-11-03T01:46:28.546Z,41.7
2022-11-03T01:47:32.868Z,39.3
2022-11-03T01:48:37.366Z,43.4
2022-11-03T01:49:41.683Z,42.4
2022-11-03T01:50:51.371Z,46
2022-11-03T01:51:55.868Z,50
2022-11-03T01:53:05.744Z,47.3
2022-11-03T01:54:10.063Z,52
2022-11-03T01:55:14.746Z,46
2022-11-03T01:56:24.928Z,48.6
2022-11-03T01:57:29.531Z,46.2
2022-11-03T01:58:37.226Z,48.9
2022-11-03T01:59:41.720Z,53
2022-11-03T02:00:46.328Z,51.4
2022-11-03T02:01:50.919Z,47.8
2022-11-03T02:02:55.056Z,47.6
2022-11-03T02:03:59.466Z,47.2
2022-11-03T02:05:04.082Z,41.3
2022-11-03T02:06:08.786Z,41.4
2022-11-03T02:07:13.256Z,39.1
2022-11-03T02:08:17.872Z,38.8
2022-11-03T02:09:32.586Z,42.7
2022-11-03T02:10:37.072Z,40.6
2022-11-03T02:11:41.583Z,41.8
2022-11-03T02:12:50.972Z,47.1
2022-11-03T02:13:55.450Z,43.1
2022-11-03T02:14:59.646Z,41.4
2022-11-03T02:16:06.699Z,38.7
2022-11-03T02:17:11.254Z,42
2022-11-03T02:18:15.461Z,44.7
2022-11-03T02:19:20.430Z,38
2022-11-03T02:20:27.556Z,38.7
2022-11-03T02:21:31.651Z,35.9
2022-11-03T02:22:41.465Z,37.5
2022-11-03T02:23:53.690Z,34.2
2022-11-03T02:25:03.262Z,37.1
2022-11-03T02:26:18.124Z,37.7
2022-11-03T02:27:22.650Z,35.4
2022-11-03T02:28:27.323Z,35.2
2022-11-03T02:29:31.795Z,33.1
2022-11-03T02:30:36.351Z,30.3
2022-11-03T02:31:51.191Z,33.2
2022-11-03T02:33:00.826Z,32.1
2022-11-03T02:34:15.590Z,32.8
2022-11-03T02:35:27.742Z,36.2
2022-11-03T02:36:32.270Z,34.7
2022-11-03T02:37:44.518Z,31.8
2022-11-03T02:38:48.617Z,31.2
2022-11-03T02:39:53.260Z,33.2
2022-11-03T02:40:57.770Z,31.5
2022-11-03T02:42:01.876Z,32.3
2022-11-03T02:43:06.331Z,31.6
2022-11-03T02:44:10.510Z,30.9
2022-11-03T02:45:16.392Z,30.5
2022-11-03T02:46:19.138Z,34
2022-11-03T02:47:23.229Z,30.1
2022-11-03T02:48:27.346Z,31.7
2022-11-03T02:49:31.897Z,32
2022-11-03T02:50:39.618Z,32.3
2022-11-03T02:51:43.754Z,28.7
2022-11-03T02:52:48.401Z,31.2
2022-11-03T02:53:52.934Z,31.1
2022-11-03T02:55:03.225Z,30.2
2022-11-03T02:56:13.423Z,34.1
2022-11-03T02:57:17.996Z,33.2
2022-11-03T02:58:22.454Z,30.3
2022-11-03T02:59:37.322Z,32.8
2022-11-03T03:00:41.903Z,32.4
2022-11-03T03:01:54.062Z,31.5
2022-11-03T03:03:03.944Z,30.5
2022-11-03T03:04:16.297Z,34
2022-11-03T03:05:31.033Z,33.7
2022-11-03T03:06:36.162Z,33
2022-11-03T03:07:40.731Z,31.9
2022-11-03T03:08:44.786Z,30.7
2022-11-03T03:09:48.942Z,30.5
2022-11-03T03:10:58.537Z,30.5
2022-11-03T03:12:03.095Z,29.3
2022-11-03T03:13:08.060Z,30.4
2022-11-03T03:14:12.317Z,32
2022-11-03T03:15:16.901Z,29.6
2022-11-03T03:16:21.434Z,31.8
2022-11-03T03:17:25.963Z,33.8
2022-11-03T03:18:38.202Z,33.1
2022-11-03T03:19:43.174Z,30.4
2022-11-03T03:20:52.446Z,31.4
2022-11-03T03:22:00.167Z,30.9
2022-11-03T03:23:07.531Z,30.5
2022-11-03T03:24:14.230Z,33.2
2022-11-03T03:25:26.536Z,29.9
2022-11-03T03:26:34.170Z,30.7
2022-11-03T03:27:38.665Z,30
2022-11-03T03:28:42.759Z,30.1
2022-11-03T03:29:50.146Z,31.7
2022-11-03T03:30:57.394Z,33.1
2022-11-03T03:32:01.650Z,30.1
2022-11-03T03:33:06.461Z,31
2022-11-03T03:34:23.977Z,30.8
2022-11-03T03:35:15.322Z,29.8
2022-11-03T03:36:19.779Z,28.5
2022-11-03T03:37:24.121Z,29.4
2022-11-03T03:38:28.569Z,30.5
2022-11-03T03:39:33.137Z,27.5
2022-11-03T03:40:37.637Z,26.9
2022-11-03T03:41:41.838Z,29.7
2022-11-03T03:42:46.358Z,28.1
2022-11-03T03:43:50.410Z,26.3
2022-11-03T03:44:54.566Z,29.4
2022-11-03T03:45:59.095Z,26.7
2022-11-03T03:47:08.685Z,29.8
2022-11-03T03:48:15.778Z,29.9
2022-11-03T03:49:19.762Z,31.1
2022-11-03T03:50:24.162Z,28.7
2022-11-03T03:51:28.553Z,30.8
2022-11-03T03:52:33.097Z,26.8
2022-11-03T03:53:37.675Z,29.8
2022-11-03T03:54:42.190Z,28.4
2022-11-03T03:55:47.014Z,28.2
2022-11-03T03:56:51.490Z,31.7
2022-11-03T03:58:01.089Z,32.3
2022-11-03T03:59:05.201Z,30.2
2022-11-03T04:00:09.747Z,29
2022-11-03T04:01:14.475Z,28.2
2022-11-03T04:02:18.937Z,30.2
2022-11-03T04:03:22.921Z,25.8
2022-11-03T04:04:27.018Z,27.3
2022-11-03T04:05:31.585Z,28.2
2022-11-03T04:06:35.666Z,27.3
2022-11-03T04:07:40.855Z,25.2
2022-11-03T04:08:48.974Z,24.1
2022-11-03T04:09:53.771Z,24.9
2022-11-03T04:10:58.093Z,26.1
2022-11-03T04:12:07.815Z,25.8
2022-11-03T04:13:17.388Z,26.8
2022-11-03T04:14:26.998Z,25.4
2022-11-03T04:15:36.894Z,25.3
2022-11-03T04:16:46.409Z,25.3
2022-11-03T04:17:56.178Z,27.8
2022-11-03T04:19:05.753Z,25.7
2022-11-03T04:20:15.391Z,30.1
2022-11-03T04:21:25.041Z,27.3
2022-11-03T04:22:34.870Z,28.2
2022-11-03T04:23:39.374Z,25.5
2022-11-03T04:24:43.857Z,25.6
2022-11-03T04:25:48.085Z,27.7
2022-11-03T04:26:52.657Z,26.6
2022-11-03T04:27:59.885Z,25.4
2022-11-03T04:29:09.676Z,26.7
2022-11-03T04:30:13.948Z,26.6
2022-11-03T04:31:18.477Z,26.4
2022-11-03T04:32:22.777Z,28.9
2022-11-03T04:33:27.234Z,27.8
2022-11-03T04:34:31.846Z,26.6
2022-11-03T04:35:36.357Z,26.6
2022-11-03T04:36:40.890Z,28.5
2022-11-03T04:37:47.710Z,30.7
2022-11-03T04:38:50.053Z,30.8
2022-11-03T04:39:54.354Z,27.8
2022-11-03T04:40:58.805Z,29.8
2022-11-03T04:42:03.270Z,27.6
2022-11-03T04:43:15.480Z,30.9
2022-11-03T04:44:19.654Z,28.8
2022-11-03T04:45:24.276Z,29.9
2022-11-03T04:46:28.763Z,28.4
2022-11-03T04:47:32.841Z,26.2
2022-11-03T04:48:37.513Z,25.5
2022-11-03T04:49:42.214Z,25.8
2022-11-03T04:50:47.109Z,26
2022-11-03T04:51:51.282Z,26.1
2022-11-03T04:52:55.757Z,25
2022-11-03T04:53:59.875Z,27.5
2022-11-03T04:55:04.431Z,26
2022-11-03T04:56:09.497Z,26.1
2022-11-03T04:57:15.166Z,24.6
2022-11-03T04:58:19.608Z,24.8
2022-11-03T04:59:24.181Z,29.6
2022-11-03T05:00:28.246Z,28.5
2022-11-03T05:01:32.461Z,27.7
2022-11-03T05:02:36.531Z,28.7
2022-11-03T05:03:41.172Z,26.9
2022-11-03T05:04:45.633Z,28
2022-11-03T05:05:49.862Z,23.8
2022-11-03T05:06:54.309Z,25.2
2022-11-03T05:07:58.426Z,25.2
2022-11-03T05:09:02.856Z,25.4
2022-11-03T05:10:12.098Z,26.7
2022-11-03T05:11:16.657Z,27
2022-11-03T05:12:23.862Z,26.8
2022-11-03T05:13:28.506Z,26.3
2022-11-03T05:14:33.040Z,26.2
2022-11-03T05:15:37.720Z,24.8
2022-11-03T05:16:42.155Z,28.9
2022-11-03T05:17:46.778Z,23.6
2022-11-03T05:18:51.277Z,25.5
2022-11-03T05:19:55.261Z,25
2022-11-03T05:21:02.598Z,26.3
2022-11-03T05:22:07.046Z,26.3
2022-11-03T05:23:14.585Z,25.9
2022-11-03T05:24:19.254Z,27.1
2022-11-03T05:25:26.653Z,28
2022-11-03T05:26:36.154Z,28.4
2022-11-03T05:27:40.738Z,27.8
2022-11-03T05:28:46.010Z,28.4
2022-11-03T05:29:50.345Z,28.5
2022-11-03T05:30:55.036Z,26.7
2022-11-03T05:31:59.393Z,31.1
2022-11-03T05:33:03.982Z,27.8
2022-11-03T05:34:13.604Z,26.7
2022-11-03T05:35:23.312Z,25.2
2022-11-03T05:36:27.853Z,25.3
2022-11-03T05:37:32.430Z,25.7
2022-11-03T05:38:36.949Z,25.5
2022-11-03T05:39:40.954Z,28.4
2022-11-03T05:40:45.230Z,26.2
2022-11-03T05:41:52.321Z,26.2
2022-11-03T05:42:56.894Z,26.6
2022-11-03T05:44:01.601Z,31.3
2022-11-03T05:45:11.065Z,28.7
2022-11-03T05:46:20.766Z,33.2
2022-11-03T05:47:25.475Z,29.8
2022-11-03T05:48:35.129Z,31.1
2022-11-03T05:49:39.521Z,29.5
2022-11-03T05:50:43.816Z,29.7
2022-11-03T05:51:48.341Z,30.1
2022-11-03T05:52:53.065Z,30.9
2022-11-03T05:53:57.949Z,30.9
2022-11-03T05:55:03.041Z,32.2
2022-11-03T05:56:08.405Z,33.2
2022-11-03T05:57:13.284Z,30.4
2022-11-03T05:58:17.778Z,29.4
2022-11-03T05:59:27.470Z,34
2022-11-03T06:00:31.990Z,35
2022-11-03T06:01:38.824Z,32.3
2022-11-03T06:02:43.261Z,37.5
2022-11-03T06:03:47.358Z,34.5
2022-11-03T06:04:51.620Z,37.4
2022-11-03T06:05:55.969Z,32.3
2022-11-03T06:07:00.154Z,36.3
2022-11-03T06:08:07.369Z,37.2
2022-11-03T06:09:14.320Z,39.8
2022-11-03T06:10:21.926Z,39.2
2022-11-03T06:11:31.478Z,44.6
2022-11-03T06:12:35.548Z,46
2022-11-03T06:13:39.629Z,43.5
2022-11-03T06:14:43.809Z,42.9
2022-11-03T06:15:48.673Z,45.5
2022-11-03T06:16:58.383Z,40.7
2022-11-03T06:18:02.901Z,39.5
2022-11-03T06:19:12.564Z,37.9
2022-11-03T06:20:23.049Z,38.8
2022-11-03T06:21:27.553Z,41.1
2022-11-03T06:22:32.292Z,38.1
2022-11-03T06:23:36.912Z,35.9
2022-11-03T06:24:41.585Z,35.6
2022-11-03T06:25:45.945Z,34.4
2022-11-03T06:26:50.493Z,36.5
2022-11-03T06:27:55.194Z,35.3
2022-11-03T06:29:02.308Z,40.1
2022-11-03T06:30:07.060Z,37.4
2022-11-03T06:31:22.859Z,38.6
2022-11-03T06:32:28.806Z,36
2022-11-03T06:33:33.342Z,38.2
2022-11-03T06:34:38.028Z,43
2022-11-03T06:35:42.337Z,38.4
2022-11-03T06:36:46.608Z,37.4
2022-11-03T06:37:51.146Z,40.1
2022-11-03T06:38:55.540Z,42.4
2022-11-03T06:40:02.987Z,36
2022-11-03T06:41:10.469Z,38.2
2022-11-03T06:42:18.217Z,41.2
2022-11-03T06:43:22.945Z,41.4
2022-11-03T06:44:34.857Z,42.7
2022-11-03T06:45:39.361Z,41.3
2022-11-03T06:46:48.568Z,42.1
2022-11-03T06:47:57.156Z,40
2022-11-03T06:49:02.036Z,39.5
2022-11-03T06:50:06.463Z,37.7
2022-11-03T06:51:21.137Z,35.5
2022-11-03T06:52:25.682Z,36.1
2022-11-03T06:53:32.911Z,39
2022-11-03T06:54:37.455Z,37.7
2022-11-03T06:55:41.895Z,37.5
2022-11-03T06:56:46.243Z,42.3
2022-11-03T06:57:50.856Z,41.3
2022-11-03T06:58:55.491Z,36.8
2022-11-03T07:00:13.159Z,37.9
2022-11-03T07:01:14.795Z,36.7
2022-11-03T07:02:19.297Z,37.2
2022-11-03T07:03:26.452Z,35.7
2022-11-03T07:04:31.009Z,32.4
2022-11-03T07:05:35.458Z,34.4
2022-11-03T07:06:40.045Z,33.2
2022-11-03T07:07:44.203Z,32.5
2022-11-03T07:08:48.415Z,32.3
2022-11-03T07:09:58.677Z,28.8
2022-11-03T07:11:03.049Z,28.3
2022-11-03T07:12:07.229Z,30.8
2022-11-03T07:13:12.070Z,32.9
2022-11-03T07:14:16.418Z,33
2022-11-03T07:15:23.495Z,34.1
2022-11-03T07:16:33.761Z,38.2
2022-11-03T07:17:38.257Z,35.6
2022-11-03T07:18:42.825Z,40.1
2022-11-03T07:19:47.578Z,40.2
2022-11-03T07:20:52.006Z,41.9
2022-11-03T07:21:56.579Z,39.9
2022-11-03T07:23:06.329Z,39.3
2022-11-03T07:24:10.901Z,40.5
2022-11-03T07:25:23.017Z,41.4
2022-11-03T07:26:27.554Z,45
2022-11-03T07:27:31.760Z,39.9
2022-11-03T07:28:38.704Z,37.7
2022-11-03T07:29:43.454Z,37.3
2022-11-03T07:30:48.037Z,36.3
2022-11-03T07:31:52.841Z,36.3
2022-11-03T07:32:58.520Z,35.7
2022-11-03T07:34:02.880Z,34.1
2022-11-03T07:35:07.514Z,33.9
2022-11-03T07:36:17.405Z,33.9
2022-11-03T07:37:21.578Z,38.6
2022-11-03T07:38:26.050Z,29.2
2022-11-03T07:39:30.762Z,32.5
2022-11-03T07:40:35.368Z,31.1
2022-11-03T07:41:40.081Z,28.8
2022-11-03T07:42:44.506Z,29.2
2022-11-03T07:43:49.052Z,31.2
2022-11-03T07:44:56.136Z,26.2
2022-11-03T07:46:00.793Z,26.7
2022-11-03T07:47:05.244Z,24.9
2022-11-03T07:48:12.380Z,24.1
2022-11-03T07:49:22.008Z,22.9
2022-11-03T07:50:26.594Z,23.6
2022-11-03T07:51:30.788Z,25.1
2022-11-03T07:52:35.136Z,25.5
2022-11-03T07:53:39.464Z,21.8
2022-11-03T07:54:43.933Z,25.4
2022-11-03T07:55:48.711Z,21.5
2022-11-03T07:56:53.261Z,24.5
2022-11-03T07:57:57.876Z,29.1
2022-11-03T07:59:02.197Z,27.3
2022-11-03T08:00:10.043Z,26.9
2022-11-03T08:01:13.501Z,29.3
2022-11-03T08:02:25.772Z,30.6
2022-11-03T08:03:35.277Z,26
2022-11-03T08:04:45.471Z,24.2
2022-11-03T08:05:49.588Z,23.4
2022-11-03T08:06:54.268Z,22
2022-11-03T08:07:58.803Z,20.3
2022-11-03T08:09:03.331Z,20.9
2022-11-03T08:10:07.998Z,21.4
2022-11-03T08:12:16.531Z,21.3
2022-11-03T08:13:22.502Z,23.2
2022-11-03T08:14:27.103Z,22.8
2022-11-03T08:15:31.622Z,23.8
2022-11-03T08:16:35.730Z,17.9
2022-11-03T08:17:40.307Z,21
2022-11-03T08:18:44.905Z,20.8
2022-11-03T08:19:49.369Z,19.7
2022-11-03T08:20:53.742Z,21.9
2022-11-03T08:21:58.205Z,22.9
2022-11-03T08:23:24.394Z,20.2
2022-11-03T08:24:07.325Z,22.8
2022-11-03T08:25:11.910Z,23.1
2022-11-03T08:26:16.627Z,24.4
2022-11-03T08:27:21.127Z,24.8
2022-11-03T08:28:25.680Z,22.6
2022-11-03T08:29:30.191Z,22.9
2022-11-03T08:30:34.687Z,23.3
2022-11-03T08:31:39.059Z,23.5
2022-11-03T08:32:43.698Z,22.1
2022-11-03T08:33:48.242Z,23.2
2022-11-03T08:34:52.869Z,22.1
2022-11-03T08:35:57.327Z,24.6
2022-11-03T08:37:01.814Z,23.4
2022-11-03T08:38:06.751Z,22.5
2022-11-03T08:39:11.149Z,23.4
2022-11-03T08:40:15.537Z,23
2022-11-03T08:41:20.417Z,23
2022-11-03T08:42:24.717Z,23.5
2022-11-03T08:43:29.289Z,23
2022-11-03T08:44:33.748Z,20.5
2022-11-03T08:45:38.354Z,27.8
2022-11-03T08:46:43.051Z,22.7
2022-11-03T08:47:47.775Z,22.1
2022-11-03T08:48:52.347Z,26.3
2022-11-03T08:49:56.742Z,23.2
2022-11-03T08:51:01.200Z,23.8
2022-11-03T08:52:05.931Z,22.3
2022-11-03T08:53:10.647Z,25.1
2022-11-03T08:54:15.083Z,27.3
2022-11-03T08:55:19.568Z,24.1
2022-11-03T08:56:24.024Z,26.3
2022-11-03T08:57:28.195Z,26.5
2022-11-03T08:58:32.339Z,25
2022-11-03T08:59:36.951Z,25.9
2022-11-03T09:00:41.589Z,21.8
2022-11-03T09:01:46.172Z,23
2022-11-03T09:02:50.615Z,24.4
2022-11-03T09:03:55.106Z,25.7
2022-11-03T09:04:59.486Z,23.6
2022-11-03T09:06:03.942Z,23.1
2022-11-03T09:07:08.655Z,23.9
2022-11-03T09:10:23.392Z,23.8
2022-11-03T09:11:26.755Z,25.1
2022-11-03T09:12:31.445Z,26
2022-11-03T09:13:35.893Z,27.3
2022-11-03T09:14:40.502Z,26.4
2022-11-03T09:15:45.190Z,26.9
2022-11-03T09:16:49.806Z,25.4
2022-11-03T09:17:54.237Z,24.4
2022-11-03T09:18:58.777Z,25
2022-11-03T09:20:02.798Z,22
2022-11-03T09:21:07.495Z,21.6
2022-11-03T09:22:12.186Z,18.5
2022-11-03T09:23:16.717Z,20.2
2022-11-03T09:24:21.362Z,18.8
2022-11-03T09:25:25.801Z,14.5
2022-11-03T09:26:30.349Z,16.7
2022-11-03T09:27:34.630Z,16.8
2022-11-03T09:28:39.112Z,14.5
2022-11-03T09:30:06.923Z,16.8
2022-11-03T09:30:48.341Z,16.3
2022-11-03T09:31:52.985Z,17.2
2022-11-03T09:32:57.685Z,15.9
2022-11-03T09:34:02.392Z,17.8
2022-11-03T09:35:07.202Z,13.1
2022-11-03T09:36:11.690Z,14.5
2022-11-03T09:37:15.881Z,17.7
2022-11-03T09:38:20.564Z,16
2022-11-03T09:39:24.850Z,17.4
2022-11-03T09:40:29.050Z,16.4
2022-11-03T09:41:57.056Z,18.1
2022-11-03T09:42:38.313Z,14.3
2022-11-03T09:43:42.949Z,16.8
2022-11-03T09:44:47.543Z,16.8
2022-11-03T09:45:52.101Z,20.3
2022-11-03T09:46:58.322Z,17
2022-11-03T09:48:01.222Z,16.2
2022-11-03T09:49:05.781Z,14.7
2022-11-03T09:50:09.953Z,14.1
2022-11-03T09:51:14.648Z,14.7
2022-11-03T09:52:19.173Z,14.5
2022-11-03T09:53:23.611Z,16.7
2022-11-03T09:54:27.850Z,15.1
2022-11-03T09:55:32.361Z,13
2022-11-03T09:56:37.214Z,16.1
2022-11-03T09:57:41.361Z,15.5
2022-11-03T09:58:48.629Z,15.8
2022-11-03T09:59:50.363Z,14.9
2022-11-03T10:00:55.695Z,15
2022-11-03T10:02:00.034Z,13.1
2022-11-03T10:03:05.341Z,16.5
2022-11-03T10:04:12.193Z,13.4
2022-11-03T10:05:22.069Z,13.2
2022-11-03T10:06:26.401Z,12.6
2022-11-03T10:07:30.825Z,13.3
2022-11-03T10:08:35.461Z,14.1
2022-11-03T10:09:39.974Z,15.3
2022-11-03T10:10:44.093Z,12.7
2022-11-03T10:11:48.464Z,14.8
2022-11-03T10:12:52.849Z,15.7
2022-11-03T10:13:56.973Z,13.4
2022-11-03T10:15:01.648Z,15.5
2022-11-03T10:16:06.085Z,14.6
2022-11-03T10:17:10.709Z,10.5
2022-11-03T10:18:15.208Z,13
2022-11-03T10:19:19.400Z,17.1
2022-11-03T10:20:24.261Z,12.6
2022-11-03T10:21:28.604Z,14
2022-11-03T10:22:35.960Z,12.7
2022-11-03T10:23:37.717Z,14.4
2022-11-03T10:24:42.350Z,10.5
2022-11-03T10:25:46.953Z,11.6
2022-11-03T10:26:51.569Z,12.9
2022-11-03T10:27:56.077Z,12.3
2022-11-03T10:29:10.993Z,10.7
2022-11-03T10:30:25.517Z,13.5
2022-11-03T10:31:29.642Z,11
2022-11-03T10:32:36.897Z,10.8
2022-11-03T10:33:41.541Z,11.9
2022-11-03T10:34:53.773Z,9
2022-11-03T10:35:58.260Z,10.9
2022-11-03T10:37:06.033Z,11.7
2022-11-03T10:38:15.583Z,10.8
2022-11-03T10:39:27.754Z,12.1
2022-11-03T10:40:47.157Z,12.6
2022-11-03T10:41:36.811Z,11.2
2022-11-03T10:42:40.882Z,11.1
2022-11-03T10:43:45.042Z,10.1
2022-11-03T10:44:59.937Z,12.6
2022-11-03T10:46:23.366Z,10.7
2022-11-03T10:47:16.734Z,12.1
2022-11-03T10:48:26.293Z,10.7
2022-11-03T10:49:30.361Z,8.6
2022-11-03T10:50:34.373Z,7.9
2022-11-03T10:51:38.542Z,8.6
2022-11-03T10:52:42.735Z,10.3
2022-11-03T10:53:47.358Z,10
2022-11-03T10:54:51.909Z,10.8
2022-11-03T10:55:56.534Z,10.9
2022-11-03T10:57:01.192Z,11
2022-11-03T10:58:05.814Z,9.6
2022-11-03T10:59:10.378Z,8.4
2022-11-03T11:00:19.881Z,8.1
2022-11-03T11:01:24.705Z,6.4
2022-11-03T11:02:29.173Z,6.8
2022-11-03T11:03:33.634Z,7.6
2022-11-03T11:04:37.927Z,8
2022-11-03T11:05:42.258Z,8.7
2022-11-03T11:06:46.626Z,10.2
2022-11-03T11:07:51.127Z,11.8
2022-11-03T11:08:59.731Z,13.2
2022-11-03T11:10:03.289Z,8.5
2022-11-03T11:11:15.953Z,9.8
2022-11-03T11:12:20.098Z,9.5
2022-11-03T11:13:24.741Z,9
2022-11-03T11:14:29.533Z,9.4
2022-11-03T11:15:36.742Z,9.3
2022-11-03T11:16:44.040Z,9.8
2022-11-03T11:17:56.294Z,12.1
2022-11-03T11:19:01.057Z,9.7
2022-11-03T11:20:05.363Z,9.6
2022-11-03T11:21:20.192Z,7.7
2022-11-03T11:22:27.617Z,10.5
2022-11-03T11:23:31.929Z,9.5
2022-11-03T11:24:36.409Z,9.6
2022-11-03T11:25:43.565Z,10.1
2022-11-03T11:26:58.264Z,10.1
2022-11-03T11:28:02.450Z,9.3
2022-11-03T11:29:11.961Z,8.4
2022-11-03T11:30:16.566Z,8.4
2022-11-03T11:31:20.888Z,10.9
2022-11-03T11:32:28.309Z,10.9
2022-11-03T11:33:40.501Z,9.7
2022-11-03T11:34:44.646Z,9.3
2022-11-03T11:35:49.588Z,8.3
2022-11-03T11:36:53.968Z,7.8
2022-11-03T11:37:58.333Z,9.3
2022-11-03T11:39:13.181Z,9.6
2022-11-03T11:40:20.784Z,9.1
2022-11-03T11:41:25.369Z,10.3
2022-11-03T11:42:40.301Z,11.1
2022-11-03T11:43:55.070Z,10.4
2022-11-03T11:44:59.437Z,11.9
2022-11-03T11:46:03.994Z,10.6
2022-11-03T11:47:13.758Z,9.8
2022-11-03T11:48:23.436Z,10.8
2022-11-03T11:49:28.046Z,9.4
2022-11-03T11:50:32.527Z,10.8
2022-11-03T11:51:36.737Z,12.7
2022-11-03T11:52:41.499Z,10.7
2022-11-03T11:53:48.150Z,9.3
2022-11-03T11:54:50.014Z,9.7
2022-11-03T11:55:54.654Z,12.2
2022-11-03T11:56:59.197Z,9.7
2022-11-03T11:58:03.687Z,11
2022-11-03T11:59:13.420Z,12.2
2022-11-03T12:00:23.477Z,10.7
2022-11-03T12:01:27.639Z,12.1
2022-11-03T12:02:34.749Z,11.5
2022-11-03T12:03:39.331Z,10.9
2022-11-03T12:04:45.010Z,11.6
2022-11-03T12:05:53.580Z,9.9
2022-11-03T12:06:58.129Z,11.5
2022-11-03T12:08:02.845Z,10.7
2022-11-03T12:09:17.601Z,10.7
2022-11-03T12:10:22.188Z,10.7
2022-11-03T12:11:32.450Z,10.8
2022-11-03T12:12:44.653Z,10.4
2022-11-03T12:13:49.232Z,12.2
2022-11-03T12:14:53.685Z,10.1
2022-11-03T12:15:57.789Z,9.7
2022-11-03T12:17:02.521Z,12.4
2022-11-03T12:18:14.702Z,11
2022-11-03T12:19:29.393Z,10.1
2022-11-03T12:20:41.581Z,8.6
2022-11-03T12:21:48.696Z,12.1
2022-11-03T12:22:54.014Z,10.9
2022-11-03T12:23:58.428Z,11
2022-11-03T12:25:03.021Z,9.9
2022-11-03T12:26:07.642Z,10.3
2022-11-03T12:27:17.304Z,9.2
2022-11-03T12:28:24.889Z,13.7
2022-11-03T12:29:35.618Z,9.6
2022-11-03T12:30:40.488Z,13.4
2022-11-03T12:31:44.805Z,11.6
2022-11-03T12:32:49.362Z,11.5
2022-11-03T12:33:54.080Z,11.4
2022-11-03T12:34:58.548Z,10
2022-11-03T12:36:03.309Z,9.6
2022-11-03T12:37:08.172Z,12.3
2022-11-03T12:38:12.756Z,9.3
2022-11-03T12:39:17.345Z,11.6
2022-11-03T12:40:21.900Z,9.9
2022-11-03T12:41:26.680Z,10.7
2022-11-03T12:42:31.276Z,9.1
2022-11-03T12:43:35.757Z,10.1
2022-11-03T12:44:43.727Z,11.3
2022-11-03T12:45:49.830Z,10.8
2022-11-03T12:46:54.136Z,9.8
2022-11-03T12:47:58.861Z,9.6
2022-11-03T12:49:03.455Z,10.3
2022-11-03T12:50:07.899Z,10.8
2022-11-03T12:51:12.604Z,8.9
2022-11-03T12:52:16.975Z,8.7
2022-11-03T12:53:22.920Z,10.4
2022-11-03T12:54:27.407Z,10
2022-11-03T12:55:31.866Z,11.7
2022-11-03T12:56:36.439Z,10.9
2022-11-03T12:57:40.944Z,10.8
2022-11-03T12:58:45.108Z,10.3
2022-11-03T12:59:49.805Z,12.7
2022-11-03T13:00:55.253Z,12.7
2022-11-03T13:01:59.361Z,12.7
2022-11-03T13:03:03.544Z,9.9
2022-11-03T13:04:08.141Z,10.3
2022-11-03T13:05:12.725Z,9.8
2022-11-03T13:06:17.160Z,12.2
2022-11-03T13:07:26.745Z,11.3
2022-11-03T13:08:26.078Z,11.1
2022-11-03T13:09:33.124Z,12.6
2022-11-03T13:10:37.808Z,11
2022-11-03T13:11:42.221Z,11.4
2022-11-03T13:12:52.230Z,14.2
2022-11-03T13:13:56.508Z,10.9
2022-11-03T13:15:00.944Z,10.4
2022-11-03T13:16:05.810Z,12.8
2022-11-03T13:17:10.240Z,12.5
2022-11-03T13:18:14.643Z,9.5
2022-11-03T13:19:19.010Z,14.7
2022-11-03T13:20:23.639Z,11.9
2022-11-03T13:21:28.303Z,11.2
2022-11-03T13:22:32.937Z,12.5
2022-11-03T13:23:37.373Z,12
2022-11-03T13:24:41.707Z,12.2
2022-11-03T13:25:46.134Z,13.4
2022-11-03T13:26:50.672Z,10
2022-11-03T13:27:55.402Z,12.6
2022-11-03T13:28:59.965Z,10.7
2022-11-03T13:30:04.472Z,10.3
2022-11-03T13:31:09.243Z,11.5
2022-11-03T13:32:13.726Z,10.9
2022-11-03T13:33:18.268Z,11.1
2022-11-03T13:34:22.745Z,11.5
2022-11-03T13:35:27.296Z,14.2
2022-11-03T13:36:31.728Z,14.7
2022-11-03T13:37:36.041Z,10.9
2022-11-03T13:38:41.017Z,11.6
2022-11-03T13:39:45.650Z,10.1
2022-11-03T13:40:56.555Z,14.3
2022-11-03T13:41:54.462Z,10.8
2022-11-03T13:42:59.075Z,13.4
2022-11-03T13:44:03.777Z,12.2
2022-11-03T13:45:08.250Z,12.2
2022-11-03T13:46:12.960Z,12.8
2022-11-03T13:47:17.437Z,13.5
2022-11-03T13:50:31.328Z,12.9
2022-11-03T13:51:35.783Z,13.7
2022-11-03T13:52:40.464Z,12.8
2022-11-03T13:55:54.295Z,12.1
2022-11-03T14:00:11.972Z,10.3
2022-11-03T14:01:16.686Z,10.4
2022-11-03T14:04:45.473Z,11.9
2022-11-03T14:05:34.608Z,11.7
2022-11-03T14:06:38.864Z,10.9
2022-11-03T14:07:43.283Z,11.5
2022-11-03T14:08:47.500Z,14
2022-11-03T14:09:51.723Z,14
2022-11-03T14:10:56.237Z,11.7
2022-11-03T14:12:00.733Z,11.3
2022-11-03T14:13:10.716Z,10.9
2022-11-03T14:14:15.160Z,10.3
2022-11-03T14:15:19.816Z,10.6
2022-11-03T14:16:24.267Z,11.2
2022-11-03T14:17:28.764Z,11.8
2022-11-03T14:18:33.476Z,13.9
2022-11-03T14:19:43.052Z,12.6
2022-11-03T14:20:42.585Z,14.1
2022-11-03T14:21:47.069Z,13
2022-11-03T14:22:51.750Z,12.3
2022-11-03T14:23:56.616Z,14.1
2022-11-03T14:25:00.956Z,13
2022-11-03T14:26:13.004Z,12.2
2022-11-03T14:27:10.049Z,15
2022-11-03T14:28:18.723Z,37.7
2022-11-03T14:29:19.237Z,19.1
2022-11-03T14:30:23.764Z,19.8
2022-11-03T14:31:27.848Z,14.8
2022-11-03T14:32:32.496Z,15.3
2022-11-03T14:33:37.193Z,18.7
2022-11-03T14:34:41.734Z,25.5
2022-11-03T14:35:46.265Z,23.3
2022-11-03T14:36:50.974Z,21.8
2022-11-03T14:37:55.525Z,23.8
2022-11-03T14:39:00.041Z,24.4
2022-11-03T14:40:04.900Z,24.1
2022-11-03T14:41:09.130Z,27.4
2022-11-03T14:42:16.417Z,25.7
2022-11-03T14:43:20.967Z,25.6
2022-11-03T14:44:26.025Z,25.2
2022-11-03T14:45:34.881Z,24.1
2022-11-03T14:46:37.217Z,21.1
2022-11-03T14:47:41.726Z,24
2022-11-03T14:48:45.913Z,22.7
2022-11-03T14:49:50.620Z,23.3
2022-11-03T14:50:55.336Z,24.3
2022-11-03T14:51:59.703Z,24
2022-11-03T14:53:04.280Z,26